sensor_id;sensor_type;location;lat;lon;timestamp;P1;durP1;ratioP1;P2;durP2;ratioP2
59016;SDS011;44800;55.600;38.134;2022-10-16T00:00:57;16.15;;;7.72;;
59016;SDS011;44800;55.600;38.134;2022-10-16T00:03:26;13.80;;;7.55;;
59016;SDS011;44800;55.600;38.134;2022-10-16T00:05:58;15.63;;;8.55;;
59016;SDS011;44800;55.600;38.134;2022-10-16T00:08:28;17.05;;;8.68;;
59016;SDS011;44800;55.600;38.134;2022-10-16T00:11:00;12.45;;;7.22;;
59016;SDS011;44800;55.600;38.134;2022-10-16T00:13:29;17.58;;;6.97;;
59016;SDS011;44800;55.600;38.134;2022-10-16T00:15:58;17.45;;;7.82;;
59016;SDS011;44800;55.600;38.134;2022-10-16T00:18:27;14.45;;;7.53;;
59016;SDS011;44800;55.600;38.134;2022-10-16T00:20:55;15.25;;;7.35;;
59016;SDS011;44800;55.600;38.134;2022-10-16T00:23:49;15.07;;;6.85;;
59016;SDS011;44800;55.600;38.134;2022-10-16T00:26:19;19.60;;;7.85;;
59016;SDS011;44800;55.600;38.134;2022-10-16T00:28:48;15.32;;;6.90;;
59016;SDS011;44800;55.600;38.134;2022-10-16T00:31:18;13.25;;;7.10;;
59016;SDS011;44800;55.600;38.134;2022-10-16T00:33:48;18.20;;;8.25;;
59016;SDS011;44800;55.600;38.134;2022-10-16T00:36:17;18.20;;;8.75;;
59016;SDS011;44800;55.600;38.134;2022-10-16T00:38:46;24.70;;;11.02;;
59016;SDS011;44800;55.600;38.134;2022-10-16T00:41:17;32.75;;;12.88;;
59016;SDS011;44800;55.600;38.134;2022-10-16T00:43:45;45.63;;;14.13;;
59016;SDS011;44800;55.600;38.134;2022-10-16T00:46:16;41.47;;;17.33;;
59016;SDS011;44800;55.600;38.134;2022-10-16T00:48:47;33.10;;;11.52;;
59016;SDS011;44800;55.600;38.134;2022-10-16T00:51:18;49.42;;;19.40;;
59016;SDS011;44800;55.600;38.134;2022-10-16T00:53:49;63.28;;;21.63;;
59016;SDS011;44800;55.600;38.134;2022-10-16T00:56:19;64.50;;;21.90;;
59016;SDS011;44800;55.600;38.134;2022-10-16T00:58:47;46.92;;;15.90;;
59016;SDS011;44800;55.600;38.134;2022-10-16T01:01:16;45.13;;;15.82;;
59016;SDS011;44800;55.600;38.134;2022-10-16T01:03:44;23.02;;;10.40;;
59016;SDS011;44800;55.600;38.134;2022-10-16T01:06:23;39.75;;;13.65;;
59016;SDS011;44800;55.600;38.134;2022-10-16T01:08:57;36.85;;;11.70;;
59016;SDS011;44800;55.600;38.134;2022-10-16T01:11:32;28.50;;;11.73;;
59016;SDS011;44800;55.600;38.134;2022-10-16T01:16:34;28.58;;;11.15;;
59016;SDS011;44800;55.600;38.134;2022-10-16T01:19:08;24.63;;;12.00;;
59016;SDS011;44800;55.600;38.134;2022-10-16T01:21:38;28.17;;;11.80;;
59016;SDS011;44800;55.600;38.134;2022-10-16T01:24:10;28.73;;;11.27;;
59016;SDS011;44800;55.600;38.134;2022-10-16T01:29:36;30.73;;;13.32;;
59016;SDS011;44800;55.600;38.134;2022-10-16T01:32:09;25.70;;;12.27;;
59016;SDS011;44800;55.600;38.134;2022-10-16T01:34:42;32.10;;;13.75;;
59016;SDS011;44800;55.600;38.134;2022-10-16T01:37:15;28.27;;;13.40;;
59016;SDS011;44800;55.600;38.134;2022-10-16T01:39:47;34.45;;;12.80;;
59016;SDS011;44800;55.600;38.134;2022-10-16T01:42:19;37.85;;;14.32;;
59016;SDS011;44800;55.600;38.134;2022-10-16T01:44:49;26.58;;;12.35;;
59016;SDS011;44800;55.600;38.134;2022-10-16T01:47:19;41.90;;;12.77;;
59016;SDS011;44800;55.600;38.134;2022-10-16T01:49:50;32.55;;;13.63;;
59016;SDS011;44800;55.600;38.134;2022-10-16T01:52:20;27.75;;;13.85;;
59016;SDS011;44800;55.600;38.134;2022-10-16T01:54:52;42.78;;;14.65;;
59016;SDS011;44800;55.600;38.134;2022-10-16T01:57:23;35.47;;;14.00;;
59016;SDS011;44800;55.600;38.134;2022-10-16T01:59:54;37.83;;;12.13;;
59016;SDS011;44800;55.600;38.134;2022-10-16T02:02:24;24.92;;;10.90;;
59016;SDS011;44800;55.600;38.134;2022-10-16T02:04:57;24.92;;;11.88;;
59016;SDS011;44800;55.600;38.134;2022-10-16T02:07:29;28.67;;;11.93;;
59016;SDS011;44800;55.600;38.134;2022-10-16T02:09:57;25.20;;;11.52;;
59016;SDS011;44800;55.600;38.134;2022-10-16T02:12:28;17.40;;;10.10;;
59016;SDS011;44800;55.600;38.134;2022-10-16T02:14:59;27.13;;;11.70;;
59016;SDS011;44800;55.600;38.134;2022-10-16T02:17:29;28.88;;;11.48;;
59016;SDS011;44800;55.600;38.134;2022-10-16T02:19:57;21.98;;;10.68;;
59016;SDS011;44800;55.600;38.134;2022-10-16T02:22:27;28.00;;;11.40;;
59016;SDS011;44800;55.600;38.134;2022-10-16T02:24:58;30.52;;;12.73;;
59016;SDS011;44800;55.600;38.134;2022-10-16T02:27:33;26.77;;;13.73;;
59016;SDS011;44800;55.600;38.134;2022-10-16T02:30:04;29.10;;;12.18;;
59016;SDS011;44800;55.600;38.134;2022-10-16T02:32:35;38.22;;;14.50;;
59016;SDS011;44800;55.600;38.134;2022-10-16T02:35:06;38.05;;;13.25;;
59016;SDS011;44800;55.600;38.134;2022-10-16T02:37:35;34.22;;;12.13;;
59016;SDS011;44800;55.600;38.134;2022-10-16T02:40:04;29.08;;;12.52;;
59016;SDS011;44800;55.600;38.134;2022-10-16T02:42:36;23.10;;;12.02;;
59016;SDS011;44800;55.600;38.134;2022-10-16T02:45:05;25.80;;;11.40;;
59016;SDS011;44800;55.600;38.134;2022-10-16T02:47:34;26.15;;;11.27;;
59016;SDS011;44800;55.600;38.134;2022-10-16T02:50:02;33.05;;;12.02;;
59016;SDS011;44800;55.600;38.134;2022-10-16T02:52:31;25.20;;;10.50;;
59016;SDS011;44800;55.600;38.134;2022-10-16T02:54:59;24.50;;;11.27;;
59016;SDS011;44800;55.600;38.134;2022-10-16T02:57:28;28.88;;;12.20;;
59016;SDS011;44800;55.600;38.134;2022-10-16T02:59:59;37.90;;;12.70;;
59016;SDS011;44800;55.600;38.134;2022-10-16T03:02:28;37.78;;;13.57;;
59016;SDS011;44800;55.600;38.134;2022-10-16T03:04:56;32.72;;;13.32;;
59016;SDS011;44800;55.600;38.134;2022-10-16T03:07:24;29.50;;;12.23;;
59016;SDS011;44800;55.600;38.134;2022-10-16T03:09:53;26.13;;;12.40;;
59016;SDS011;44800;55.600;38.134;2022-10-16T03:12:22;22.63;;;11.77;;
59016;SDS011;44800;55.600;38.134;2022-10-16T03:14:50;31.33;;;12.18;;
59016;SDS011;44800;55.600;38.134;2022-10-16T03:17:19;32.67;;;12.27;;
59016;SDS011;44800;55.600;38.134;2022-10-16T03:19:48;28.33;;;11.70;;
59016;SDS011;44800;55.600;38.134;2022-10-16T03:22:16;28.73;;;12.60;;
59016;SDS011;44800;55.600;38.134;2022-10-16T03:24:44;28.90;;;12.07;;
59016;SDS011;44800;55.600;38.134;2022-10-16T03:27:13;29.33;;;12.38;;
59016;SDS011;44800;55.600;38.134;2022-10-16T03:29:41;22.95;;;11.38;;
59016;SDS011;44800;55.600;38.134;2022-10-16T03:32:09;26.73;;;11.85;;
59016;SDS011;44800;55.600;38.134;2022-10-16T03:34:39;21.90;;;11.63;;
59016;SDS011;44800;55.600;38.134;2022-10-16T03:37:09;22.23;;;10.20;;
59016;SDS011;44800;55.600;38.134;2022-10-16T03:39:37;26.85;;;10.80;;
59016;SDS011;44800;55.600;38.134;2022-10-16T03:42:05;28.02;;;9.27;;
59016;SDS011;44800;55.600;38.134;2022-10-16T03:44:33;23.48;;;9.10;;
59016;SDS011;44800;55.600;38.134;2022-10-16T03:47:01;18.33;;;8.45;;
59016;SDS011;44800;55.600;38.134;2022-10-16T03:49:30;22.70;;;10.40;;
59016;SDS011;44800;55.600;38.134;2022-10-16T03:51:59;14.63;;;9.38;;
59016;SDS011;44800;55.600;38.134;2022-10-16T03:54:27;24.27;;;9.15;;
59016;SDS011;44800;55.600;38.134;2022-10-16T03:56:56;20.15;;;9.93;;
59016;SDS011;44800;55.600;38.134;2022-10-16T03:59:24;20.60;;;9.30;;
59016;SDS011;44800;55.600;38.134;2022-10-16T04:01:52;19.58;;;9.27;;
59016;SDS011;44800;55.600;38.134;2022-10-16T04:04:21;23.25;;;9.88;;
59016;SDS011;44800;55.600;38.134;2022-10-16T04:06:49;21.70;;;9.18;;
59016;SDS011;44800;55.600;38.134;2022-10-16T04:09:18;20.70;;;9.20;;
59016;SDS011;44800;55.600;38.134;2022-10-16T04:11:47;30.75;;;10.40;;
59016;SDS011;44800;55.600;38.134;2022-10-16T04:14:15;19.85;;;10.10;;
59016;SDS011;44800;55.600;38.134;2022-10-16T04:16:43;26.23;;;10.23;;
59016;SDS011;44800;55.600;38.134;2022-10-16T04:19:11;23.77;;;11.30;;
59016;SDS011;44800;55.600;38.134;2022-10-16T04:21:39;28.27;;;10.13;;
59016;SDS011;44800;55.600;38.134;2022-10-16T04:24:08;21.65;;;9.23;;
59016;SDS011;44800;55.600;38.134;2022-10-16T04:26:38;28.30;;;9.73;;
59016;SDS011;44800;55.600;38.134;2022-10-16T04:29:06;21.08;;;9.35;;
59016;SDS011;44800;55.600;38.134;2022-10-16T04:31:34;23.95;;;10.25;;
59016;SDS011;44800;55.600;38.134;2022-10-16T04:34:03;26.20;;;9.43;;
59016;SDS011;44800;55.600;38.134;2022-10-16T04:36:31;27.10;;;10.55;;
59016;SDS011;44800;55.600;38.134;2022-10-16T04:38:59;18.00;;;8.48;;
59016;SDS011;44800;55.600;38.134;2022-10-16T04:41:28;23.42;;;9.38;;
59016;SDS011;44800;55.600;38.134;2022-10-16T04:43:57;20.77;;;8.60;;
59016;SDS011;44800;55.600;38.134;2022-10-16T04:46:25;22.92;;;9.00;;
59016;SDS011;44800;55.600;38.134;2022-10-16T04:48:54;13.88;;;7.72;;
59016;SDS011;44800;55.600;38.134;2022-10-16T04:51:22;18.58;;;9.70;;
59016;SDS011;44800;55.600;38.134;2022-10-16T04:53:50;23.77;;;9.52;;
59016;SDS011;44800;55.600;38.134;2022-10-16T04:56:19;22.30;;;9.85;;
59016;SDS011;44800;55.600;38.134;2022-10-16T04:58:49;25.85;;;10.27;;
59016;SDS011;44800;55.600;38.134;2022-10-16T05:01:18;20.13;;;9.88;;
59016;SDS011;44800;55.600;38.134;2022-10-16T05:03:47;23.30;;;9.63;;
59016;SDS011;44800;55.600;38.134;2022-10-16T05:06:15;15.63;;;6.47;;
59016;SDS011;44800;55.600;38.134;2022-10-16T05:08:43;28.80;;;11.38;;
59016;SDS011;44800;55.600;38.134;2022-10-16T05:11:12;18.90;;;8.80;;
59016;SDS011;44800;55.600;38.134;2022-10-16T05:13:40;22.98;;;9.25;;
59016;SDS011;44800;55.600;38.134;2022-10-16T05:16:08;19.08;;;9.82;;
59016;SDS011;44800;55.600;38.134;2022-10-16T05:18:37;19.92;;;9.43;;
59016;SDS011;44800;55.600;38.134;2022-10-16T05:21:06;22.48;;;8.45;;
59016;SDS011;44800;55.600;38.134;2022-10-16T05:23:34;28.35;;;12.55;;
59016;SDS011;44800;55.600;38.134;2022-10-16T05:26:02;23.67;;;10.95;;
59016;SDS011;44800;55.600;38.134;2022-10-16T05:28:30;22.90;;;10.02;;
59016;SDS011;44800;55.600;38.134;2022-10-16T05:30:59;21.55;;;9.88;;
59016;SDS011;44800;55.600;38.134;2022-10-16T05:33:27;23.95;;;10.45;;
59016;SDS011;44800;55.600;38.134;2022-10-16T05:35:56;29.63;;;9.77;;
59016;SDS011;44800;55.600;38.134;2022-10-16T05:38:25;20.38;;;8.73;;
59016;SDS011;44800;55.600;38.134;2022-10-16T05:40:53;23.65;;;8.95;;
59016;SDS011;44800;55.600;38.134;2022-10-16T05:43:22;15.23;;;7.82;;
59016;SDS011;44800;55.600;38.134;2022-10-16T05:45:54;17.00;;;7.55;;
59016;SDS011;44800;55.600;38.134;2022-10-16T05:48:23;12.60;;;7.90;;
59016;SDS011;44800;55.600;38.134;2022-10-16T05:50:59;15.40;;;8.73;;
59016;SDS011;44800;55.600;38.134;2022-10-16T05:53:29;16.40;;;8.05;;
59016;SDS011;44800;55.600;38.134;2022-10-16T05:55:58;11.63;;;6.82;;
59016;SDS011;44800;55.600;38.134;2022-10-16T05:58:28;12.70;;;7.03;;
59016;SDS011;44800;55.600;38.134;2022-10-16T06:00:57;12.60;;;6.55;;
59016;SDS011;44800;55.600;38.134;2022-10-16T06:03:27;14.48;;;6.80;;
59016;SDS011;44800;55.600;38.134;2022-10-16T06:05:55;12.27;;;7.55;;
59016;SDS011;44800;55.600;38.134;2022-10-16T06:08:25;17.38;;;7.50;;
59016;SDS011;44800;55.600;38.134;2022-10-16T06:11:00;15.52;;;7.50;;
59016;SDS011;44800;55.600;38.134;2022-10-16T06:13:30;12.30;;;6.40;;
59016;SDS011;44800;55.600;38.134;2022-10-16T06:16:01;14.45;;;6.72;;
59016;SDS011;44800;55.600;38.134;2022-10-16T06:18:33;16.20;;;8.13;;
59016;SDS011;44800;55.600;38.134;2022-10-16T06:21:07;13.43;;;7.90;;
59016;SDS011;44800;55.600;38.134;2022-10-16T06:23:39;19.70;;;9.05;;
59016;SDS011;44800;55.600;38.134;2022-10-16T06:26:10;16.45;;;7.43;;
59016;SDS011;44800;55.600;38.134;2022-10-16T06:28:43;20.95;;;8.73;;
59016;SDS011;44800;55.600;38.134;2022-10-16T06:31:13;13.27;;;7.90;;
59016;SDS011;44800;55.600;38.134;2022-10-16T06:33:43;14.98;;;7.35;;
59016;SDS011;44800;55.600;38.134;2022-10-16T06:36:16;15.00;;;8.02;;
59016;SDS011;44800;55.600;38.134;2022-10-16T06:38:48;18.55;;;7.32;;
59016;SDS011;44800;55.600;38.134;2022-10-16T06:41:18;11.23;;;7.25;;
59016;SDS011;44800;55.600;38.134;2022-10-16T06:43:49;13.68;;;5.53;;
59016;SDS011;44800;55.600;38.134;2022-10-16T06:46:20;16.30;;;7.00;;
59016;SDS011;44800;55.600;38.134;2022-10-16T06:48:51;12.52;;;6.10;;
59016;SDS011;44800;55.600;38.134;2022-10-16T06:51:21;16.17;;;7.18;;
59016;SDS011;44800;55.600;38.134;2022-10-16T06:53:54;11.93;;;6.05;;
59016;SDS011;44800;55.600;38.134;2022-10-16T06:56:31;11.30;;;5.80;;
59016;SDS011;44800;55.600;38.134;2022-10-16T06:59:00;16.42;;;6.78;;
59016;SDS011;44800;55.600;38.134;2022-10-16T07:01:28;11.68;;;5.97;;
59016;SDS011;44800;55.600;38.134;2022-10-16T07:03:57;12.15;;;6.65;;
59016;SDS011;44800;55.600;38.134;2022-10-16T07:06:25;14.60;;;7.40;;
59016;SDS011;44800;55.600;38.134;2022-10-16T07:08:56;16.55;;;8.10;;
59016;SDS011;44800;55.600;38.134;2022-10-16T07:11:24;14.80;;;9.30;;
59016;SDS011;44800;55.600;38.134;2022-10-16T07:13:52;13.18;;;7.97;;
59016;SDS011;44800;55.600;38.134;2022-10-16T07:16:22;13.43;;;7.55;;
59016;SDS011;44800;55.600;38.134;2022-10-16T07:18:53;14.13;;;7.93;;
59016;SDS011;44800;55.600;38.134;2022-10-16T07:23:57;12.43;;;6.35;;
59016;SDS011;44800;55.600;38.134;2022-10-16T07:26:28;12.85;;;7.00;;
59016;SDS011;44800;55.600;38.134;2022-10-16T07:28:57;13.57;;;9.23;;
59016;SDS011;44800;55.600;38.134;2022-10-16T07:31:26;16.77;;;8.25;;
59016;SDS011;44800;55.600;38.134;2022-10-16T07:33:55;16.73;;;8.15;;
59016;SDS011;44800;55.600;38.134;2022-10-16T07:36:25;17.83;;;8.90;;
59016;SDS011;44800;55.600;38.134;2022-10-16T07:38:54;18.85;;;9.25;;
59016;SDS011;44800;55.600;38.134;2022-10-16T07:41:27;22.58;;;8.13;;
59016;SDS011;44800;55.600;38.134;2022-10-16T07:43:55;15.25;;;8.95;;
59016;SDS011;44800;55.600;38.134;2022-10-16T07:46:26;16.27;;;8.07;;
59016;SDS011;44800;55.600;38.134;2022-10-16T07:48:55;20.92;;;9.05;;
59016;SDS011;44800;55.600;38.134;2022-10-16T07:51:24;14.02;;;8.43;;
59016;SDS011;44800;55.600;38.134;2022-10-16T07:53:52;15.10;;;8.32;;
59016;SDS011;44800;55.600;38.134;2022-10-16T07:56:21;16.75;;;8.48;;
59016;SDS011;44800;55.600;38.134;2022-10-16T07:58:51;15.90;;;7.30;;
59016;SDS011;44800;55.600;38.134;2022-10-16T08:01:20;12.80;;;7.97;;
59016;SDS011;44800;55.600;38.134;2022-10-16T08:03:48;14.23;;;8.32;;
59016;SDS011;44800;55.600;38.134;2022-10-16T08:06:18;17.63;;;8.15;;
59016;SDS011;44800;55.600;38.134;2022-10-16T08:08:52;15.80;;;9.13;;
59016;SDS011;44800;55.600;38.134;2022-10-16T08:11:20;17.17;;;9.52;;
59016;SDS011;44800;55.600;38.134;2022-10-16T08:13:48;19.13;;;9.93;;
59016;SDS011;44800;55.600;38.134;2022-10-16T08:16:18;17.35;;;8.23;;
59016;SDS011;44800;55.600;38.134;2022-10-16T08:18:46;23.30;;;10.02;;
59016;SDS011;44800;55.600;38.134;2022-10-16T08:21:15;16.20;;;8.25;;
59016;SDS011;44800;55.600;38.134;2022-10-16T08:23:47;19.27;;;9.32;;
59016;SDS011;44800;55.600;38.134;2022-10-16T08:26:20;26.15;;;8.27;;
59016;SDS011;44800;55.600;38.134;2022-10-16T08:28:49;16.48;;;8.70;;
59016;SDS011;44800;55.600;38.134;2022-10-16T08:31:19;17.15;;;9.23;;
59016;SDS011;44800;55.600;38.134;2022-10-16T08:33:49;21.67;;;14.05;;
59016;SDS011;44800;55.600;38.134;2022-10-16T08:36:18;20.73;;;10.40;;
59016;SDS011;44800;55.600;38.134;2022-10-16T08:38:47;15.02;;;6.60;;
59016;SDS011;44800;55.600;38.134;2022-10-16T08:41:22;16.23;;;8.60;;
59016;SDS011;44800;55.600;38.134;2022-10-16T08:44:03;14.40;;;8.35;;
59016;SDS011;44800;55.600;38.134;2022-10-16T08:46:52;17.93;;;7.17;;
59016;SDS011;44800;55.600;38.134;2022-10-16T08:49:28;13.43;;;8.60;;
59016;SDS011;44800;55.600;38.134;2022-10-16T08:51:58;19.95;;;9.38;;
59016;SDS011;44800;55.600;38.134;2022-10-16T08:54:28;16.00;;;7.30;;
59016;SDS011;44800;55.600;38.134;2022-10-16T08:57:00;16.75;;;7.93;;
59016;SDS011;44800;55.600;38.134;2022-10-16T08:59:35;13.93;;;7.40;;
59016;SDS011;44800;55.600;38.134;2022-10-16T09:02:11;21.33;;;8.77;;
59016;SDS011;44800;55.600;38.134;2022-10-16T09:04:53;14.68;;;8.98;;
59016;SDS011;44800;55.600;38.134;2022-10-16T09:07:28;21.92;;;10.25;;
59016;SDS011;44800;55.600;38.134;2022-10-16T09:10:06;29.27;;;10.50;;
59016;SDS011;44800;55.600;38.134;2022-10-16T09:12:40;18.45;;;8.55;;
59016;SDS011;44800;55.600;38.134;2022-10-16T09:15:16;16.42;;;7.38;;
59016;SDS011;44800;55.600;38.134;2022-10-16T09:17:54;16.67;;;9.85;;
59016;SDS011;44800;55.600;38.134;2022-10-16T09:20:27;19.05;;;7.43;;
59016;SDS011;44800;55.600;38.134;2022-10-16T09:23:04;24.17;;;7.03;;
59016;SDS011;44800;55.600;38.134;2022-10-16T09:25:40;14.00;;;6.95;;
59016;SDS011;44800;55.600;38.134;2022-10-16T09:28:11;18.27;;;7.50;;
59016;SDS011;44800;55.600;38.134;2022-10-16T09:30:39;12.98;;;7.13;;
59016;SDS011;44800;55.600;38.134;2022-10-16T09:33:09;13.65;;;6.68;;
59016;SDS011;44800;55.600;38.134;2022-10-16T09:35:38;13.40;;;6.10;;
59016;SDS011;44800;55.600;38.134;2022-10-16T09:38:08;10.95;;;6.40;;
59016;SDS011;44800;55.600;38.134;2022-10-16T09:40:37;15.02;;;6.53;;
59016;SDS011;44800;55.600;38.134;2022-10-16T09:43:12;14.20;;;6.53;;
59016;SDS011;44800;55.600;38.134;2022-10-16T09:45:55;9.88;;;4.88;;
59016;SDS011;44800;55.600;38.134;2022-10-16T09:48:26;12.05;;;4.72;;
59016;SDS011;44800;55.600;38.134;2022-10-16T09:50:56;13.85;;;5.63;;
59016;SDS011;44800;55.600;38.134;2022-10-16T09:53:26;13.88;;;5.32;;
59016;SDS011;44800;55.600;38.134;2022-10-16T09:56:06;11.70;;;5.53;;
59016;SDS011;44800;55.600;38.134;2022-10-16T09:58:37;18.98;;;4.82;;
59016;SDS011;44800;55.600;38.134;2022-10-16T10:01:05;7.85;;;3.35;;
59016;SDS011;44800;55.600;38.134;2022-10-16T10:06:22;12.00;;;5.63;;
59016;SDS011;44800;55.600;38.134;2022-10-16T10:08:53;10.60;;;4.57;;
59016;SDS011;44800;55.600;38.134;2022-10-16T10:14:09;13.15;;;4.60;;
59016;SDS011;44800;55.600;38.134;2022-10-16T10:16:46;18.23;;;5.75;;
59016;SDS011;44800;55.600;38.134;2022-10-16T10:19:16;23.13;;;5.97;;
59016;SDS011;44800;55.600;38.134;2022-10-16T10:21:46;34.17;;;9.10;;
59016;SDS011;44800;55.600;38.134;2022-10-16T10:24:16;12.48;;;5.20;;
59016;SDS011;44800;55.600;38.134;2022-10-16T10:26:48;16.77;;;5.43;;
59016;SDS011;44800;55.600;38.134;2022-10-16T10:29:22;14.65;;;4.75;;
59016;SDS011;44800;55.600;38.134;2022-10-16T10:31:58;14.00;;;5.63;;
59016;SDS011;44800;55.600;38.134;2022-10-16T10:34:41;15.23;;;5.78;;
59016;SDS011;44800;55.600;38.134;2022-10-16T10:37:26;8.55;;;4.13;;
59016;SDS011;44800;55.600;38.134;2022-10-16T10:40:03;11.52;;;5.60;;
59016;SDS011;44800;55.600;38.134;2022-10-16T10:42:36;18.67;;;5.43;;
59016;SDS011;44800;55.600;38.134;2022-10-16T10:45:18;16.13;;;4.80;;
59016;SDS011;44800;55.600;38.134;2022-10-16T10:47:55;13.30;;;4.97;;
59016;SDS011;44800;55.600;38.134;2022-10-16T10:50:30;10.52;;;4.97;;
59016;SDS011;44800;55.600;38.134;2022-10-16T10:53:05;16.13;;;5.25;;
59016;SDS011;44800;55.600;38.134;2022-10-16T10:55:40;12.15;;;5.53;;
59016;SDS011;44800;55.600;38.134;2022-10-16T10:58:19;11.10;;;4.22;;
59016;SDS011;44800;55.600;38.134;2022-10-16T11:01:01;9.85;;;4.40;;
59016;SDS011;44800;55.600;38.134;2022-10-16T11:03:36;10.83;;;4.93;;
59016;SDS011;44800;55.600;38.134;2022-10-16T11:06:34;13.13;;;4.25;;
59016;SDS011;44800;55.600;38.134;2022-10-16T11:09:07;9.07;;;3.55;;
59016;SDS011;44800;55.600;38.134;2022-10-16T11:11:40;11.25;;;3.72;;
59016;SDS011;44800;55.600;38.134;2022-10-16T11:14:12;10.52;;;4.30;;
59016;SDS011;44800;55.600;38.134;2022-10-16T11:16:43;10.20;;;4.45;;
59016;SDS011;44800;55.600;38.134;2022-10-16T11:21:49;7.43;;;3.83;;
59016;SDS011;44800;55.600;38.134;2022-10-16T11:24:20;10.02;;;4.68;;
59016;SDS011;44800;55.600;38.134;2022-10-16T11:26:51;8.35;;;4.45;;
59016;SDS011;44800;55.600;38.134;2022-10-16T11:29:22;11.73;;;4.65;;
59016;SDS011;44800;55.600;38.134;2022-10-16T11:31:53;8.75;;;5.30;;
59016;SDS011;44800;55.600;38.134;2022-10-16T11:34:25;6.47;;;4.13;;
59016;SDS011;44800;55.600;38.134;2022-10-16T11:37:01;9.27;;;5.55;;
59016;SDS011;44800;55.600;38.134;2022-10-16T11:39:33;9.25;;;5.00;;
59016;SDS011;44800;55.600;38.134;2022-10-16T11:42:02;10.20;;;5.63;;
59016;SDS011;44800;55.600;38.134;2022-10-16T11:44:38;11.98;;;4.70;;
59016;SDS011;44800;55.600;38.134;2022-10-16T11:47:18;11.82;;;5.25;;
59016;SDS011;44800;55.600;38.134;2022-10-16T11:50:13;14.82;;;6.03;;
59016;SDS011;44800;55.600;38.134;2022-10-16T11:52:53;9.85;;;4.40;;
59016;SDS011;44800;55.600;38.134;2022-10-16T11:55:26;9.45;;;4.13;;
59016;SDS011;44800;55.600;38.134;2022-10-16T11:57:58;10.23;;;4.72;;
59016;SDS011;44800;55.600;38.134;2022-10-16T12:00:31;11.47;;;3.90;;
59016;SDS011;44800;55.600;38.134;2022-10-16T12:03:08;7.28;;;4.38;;
59016;SDS011;44800;55.600;38.134;2022-10-16T12:05:49;10.95;;;4.70;;
59016;SDS011;44800;55.600;38.134;2022-10-16T12:08:24;10.07;;;4.93;;
59016;SDS011;44800;55.600;38.134;2022-10-16T12:10:52;10.65;;;4.57;;
59016;SDS011;44800;55.600;38.134;2022-10-16T12:13:28;11.82;;;4.00;;
59016;SDS011;44800;55.600;38.134;2022-10-16T12:16:04;7.57;;;3.08;;
59016;SDS011;44800;55.600;38.134;2022-10-16T12:18:34;7.82;;;4.75;;
59016;SDS011;44800;55.600;38.134;2022-10-16T12:21:02;6.38;;;4.35;;
59016;SDS011;44800;55.600;38.134;2022-10-16T12:23:36;7.95;;;4.90;;
59016;SDS011;44800;55.600;38.134;2022-10-16T12:26:05;10.48;;;5.03;;
59016;SDS011;44800;55.600;38.134;2022-10-16T12:28:34;6.03;;;3.05;;
59016;SDS011;44800;55.600;38.134;2022-10-16T12:31:03;6.95;;;3.75;;
59016;SDS011;44800;55.600;38.134;2022-10-16T12:33:33;10.10;;;4.38;;
59016;SDS011;44800;55.600;38.134;2022-10-16T12:36:03;6.70;;;3.65;;
59016;SDS011;44800;55.600;38.134;2022-10-16T12:38:35;6.38;;;3.67;;
59016;SDS011;44800;55.600;38.134;2022-10-16T12:41:07;16.63;;;4.63;;
59016;SDS011;44800;55.600;38.134;2022-10-16T12:43:38;9.88;;;3.90;;
59016;SDS011;44800;55.600;38.134;2022-10-16T12:46:21;13.57;;;4.40;;
59016;SDS011;44800;55.600;38.134;2022-10-16T12:48:51;15.75;;;5.03;;
59016;SDS011;44800;55.600;38.134;2022-10-16T12:51:33;9.52;;;3.58;;
59016;SDS011;44800;55.600;38.134;2022-10-16T12:54:09;8.65;;;4.00;;
59016;SDS011;44800;55.600;38.134;2022-10-16T12:56:41;10.38;;;4.15;;
59016;SDS011;44800;55.600;38.134;2022-10-16T12:59:21;13.60;;;5.60;;
59016;SDS011;44800;55.600;38.134;2022-10-16T13:01:57;7.00;;;5.15;;
59016;SDS011;44800;55.600;38.134;2022-10-16T13:04:48;9.07;;;4.97;;
59016;SDS011;44800;55.600;38.134;2022-10-16T13:07:34;13.18;;;4.13;;
59016;SDS011;44800;55.600;38.134;2022-10-16T13:10:14;8.77;;;3.20;;
59016;SDS011;44800;55.600;38.134;2022-10-16T13:12:49;9.02;;;4.72;;
59016;SDS011;44800;55.600;38.134;2022-10-16T13:15:31;13.13;;;4.10;;
59016;SDS011;44800;55.600;38.134;2022-10-16T13:18:05;9.90;;;4.20;;
59016;SDS011;44800;55.600;38.134;2022-10-16T13:20:45;14.25;;;4.00;;
59016;SDS011;44800;55.600;38.134;2022-10-16T13:23:24;9.43;;;4.30;;
59016;SDS011;44800;55.600;38.134;2022-10-16T13:26:01;11.00;;;3.72;;
59016;SDS011;44800;55.600;38.134;2022-10-16T13:28:37;7.05;;;3.70;;
59016;SDS011;44800;55.600;38.134;2022-10-16T13:31:09;6.80;;;3.78;;
59016;SDS011;44800;55.600;38.134;2022-10-16T13:33:45;7.43;;;4.03;;
59016;SDS011;44800;55.600;38.134;2022-10-16T13:36:18;7.60;;;3.28;;
59016;SDS011;44800;55.600;38.134;2022-10-16T13:38:48;7.57;;;3.80;;
59016;SDS011;44800;55.600;38.134;2022-10-16T13:41:29;8.23;;;4.05;;
59016;SDS011;44800;55.600;38.134;2022-10-16T13:43:57;7.18;;;3.33;;
59016;SDS011;44800;55.600;38.134;2022-10-16T13:46:25;7.63;;;3.67;;
59016;SDS011;44800;55.600;38.134;2022-10-16T13:48:56;7.95;;;4.05;;
59016;SDS011;44800;55.600;38.134;2022-10-16T13:51:25;7.15;;;3.70;;
59016;SDS011;44800;55.600;38.134;2022-10-16T13:53:54;8.52;;;4.65;;
59016;SDS011;44800;55.600;38.134;2022-10-16T13:56:24;5.72;;;3.17;;
59016;SDS011;44800;55.600;38.134;2022-10-16T13:59:02;10.15;;;4.70;;
59016;SDS011;44800;55.600;38.134;2022-10-16T14:01:31;9.20;;;4.15;;
59016;SDS011;44800;55.600;38.134;2022-10-16T14:04:02;11.65;;;4.93;;
59016;SDS011;44800;55.600;38.134;2022-10-16T14:06:32;6.80;;;4.20;;
59016;SDS011;44800;55.600;38.134;2022-10-16T14:09:02;9.45;;;5.05;;
59016;SDS011;44800;55.600;38.134;2022-10-16T14:11:33;8.55;;;3.72;;
59016;SDS011;44800;55.600;38.134;2022-10-16T14:14:10;9.65;;;4.70;;
59016;SDS011;44800;55.600;38.134;2022-10-16T14:16:40;7.55;;;4.03;;
59016;SDS011;44800;55.600;38.134;2022-10-16T14:19:13;8.05;;;4.20;;
59016;SDS011;44800;55.600;38.134;2022-10-16T14:21:46;10.15;;;3.95;;
59016;SDS011;44800;55.600;38.134;2022-10-16T14:24:21;9.35;;;4.32;;
59016;SDS011;44800;55.600;38.134;2022-10-16T14:26:54;15.07;;;4.05;;
59016;SDS011;44800;55.600;38.134;2022-10-16T14:29:26;10.20;;;4.13;;
59016;SDS011;44800;55.600;38.134;2022-10-16T14:31:55;9.52;;;4.15;;
59016;SDS011;44800;55.600;38.134;2022-10-16T14:34:25;7.15;;;4.30;;
59016;SDS011;44800;55.600;38.134;2022-10-16T14:36:54;12.50;;;5.05;;
59016;SDS011;44800;55.600;38.134;2022-10-16T14:39:23;7.95;;;3.78;;
59016;SDS011;44800;55.600;38.134;2022-10-16T14:41:55;11.30;;;4.22;;
59016;SDS011;44800;55.600;38.134;2022-10-16T14:44:28;5.63;;;3.90;;
59016;SDS011;44800;55.600;38.134;2022-10-16T14:47:05;8.73;;;3.65;;
59016;SDS011;44800;55.600;38.134;2022-10-16T14:49:35;9.25;;;4.72;;
59016;SDS011;44800;55.600;38.134;2022-10-16T14:52:05;10.57;;;4.68;;
59016;SDS011;44800;55.600;38.134;2022-10-16T14:54:37;11.63;;;4.45;;
59016;SDS011;44800;55.600;38.134;2022-10-16T14:57:05;8.50;;;4.15;;
59016;SDS011;44800;55.600;38.134;2022-10-16T14:59:41;11.85;;;5.63;;
59016;SDS011;44800;55.600;38.134;2022-10-16T15:02:15;11.38;;;4.93;;